Walcourt, Belgium
Current Conditions -  °F | °C
As of 3:20 AM on Thursday 18 Dec 2014 (Local Time) from EBCI Reporting Station
Light Rain Light Rain  
Wind Chill: 50°   Ceiling: 400
Heat Index: 50°   Visibility: 1.7mi
Dew Point: 50°   Wind: 14mph
Humidity: 100%   Direction: 220°SW
Pressure: 29.85"   Gusts: NA
Location:  50.25°N, 4.44°E
Report Text: EBCI 180220Z 22012KT 2800 -RA BR BKN004 10/10 Q1011 NOSIG
Loading
Personal Weather Stations






























Interactive Weather Map New forecast layout! Learn more

10-Day Weather Forecast

Advertisements
Track Severe Weather on mobile